createdAt,value
2016-09-01T00:00:42.770Z,6.99
2016-09-01T00:01:42.737Z,7.09
2016-09-01T00:02:42.743Z,7.05
2016-09-01T00:03:42.732Z,7.01
2016-09-01T00:04:42.715Z,7.01
2016-09-01T00:05:42.708Z,7.11
2016-09-01T00:06:42.690Z,7.05
2016-09-01T00:07:42.674Z,7.04
2016-09-01T00:08:42.684Z,7.08
2016-09-01T00:09:42.672Z,7.08
2016-09-01T00:10:42.649Z,7.05
2016-09-01T00:11:42.635Z,6.93
2016-09-01T00:12:42.612Z,6.96
2016-09-01T00:13:42.608Z,6.86
2016-09-01T00:14:42.613Z,6.83
2016-09-01T00:15:42.583Z,6.89
2016-09-01T00:16:42.591Z,6.94
2016-09-01T00:17:42.567Z,6.9
2016-09-01T00:18:42.578Z,6.89
2016-09-01T00:19:42.550Z,6.86
2016-09-01T00:20:42.569Z,6.99
2016-09-01T00:21:42.528Z,7
2016-09-01T00:22:42.549Z,6.99
2016-09-01T00:23:42.541Z,6.82
2016-09-01T00:24:42.495Z,6.82
2016-09-01T00:25:43.221Z,6.82
2016-09-01T00:26:42.510Z,6.86
2016-09-01T00:27:42.498Z,6.87
2016-09-01T00:28:42.485Z,6.94
2016-09-01T00:29:42.477Z,7.01
2016-09-01T00:30:42.470Z,6.93
2016-09-01T00:31:42.459Z,7
2016-09-01T00:32:42.425Z,7.14
2016-09-01T00:33:42.423Z,7.15
2016-09-01T00:34:42.421Z,7.19
2016-09-01T00:35:43.120Z,7.11
2016-09-01T00:36:42.395Z,7.14
2016-09-01T00:37:42.381Z,6.99
2016-09-01T00:38:42.461Z,7.01
2016-09-01T00:39:42.366Z,6.99
2016-09-01T00:40:42.362Z,6.93
2016-09-01T00:41:42.357Z,7.01
2016-09-01T00:42:42.358Z,7.01
2016-09-01T00:43:42.327Z,6.97
2016-09-01T00:44:42.315Z,6.97
2016-09-01T00:45:42.311Z,6.99
2016-09-01T00:46:42.309Z,7.08
2016-09-01T00:47:42.279Z,6.96
2016-09-01T00:48:42.303Z,7.09
2016-09-01T00:49:42.290Z,7.07
2016-09-01T00:50:42.259Z,7.05
2016-09-01T00:51:42.265Z,7.05
2016-09-01T00:52:42.253Z,6.97
2016-09-01T00:53:42.233Z,7.01
2016-09-01T00:54:42.250Z,7.07
2016-09-01T00:55:42.220Z,6.96
2016-09-01T00:56:42.219Z,7.01
2016-09-01T00:57:42.211Z,7.04
2016-09-01T00:58:42.208Z,6.97
2016-09-01T00:59:42.188Z,6.87
2016-09-01T01:00:42.184Z,6.83
2016-09-01T01:01:42.161Z,6.83
2016-09-01T01:02:42.163Z,6.83
2016-09-01T01:03:42.153Z,6.83
2016-09-01T01:04:42.139Z,6.82
2016-09-01T01:05:42.131Z,6.79
2016-09-01T01:06:42.138Z,6.78
2016-09-01T01:07:42.118Z,6.82
2016-09-01T01:08:42.097Z,6.83
2016-09-01T01:09:42.096Z,6.78
2016-09-01T01:10:42.069Z,6.83
2016-09-01T01:11:42.774Z,6.81
2016-09-01T01:12:42.072Z,6.91
2016-09-01T01:13:42.764Z,6.89
2016-09-01T01:14:42.047Z,6.82
2016-09-01T01:15:42.030Z,6.97
2016-09-01T01:16:42.048Z,6.87
2016-09-01T01:17:42.020Z,6.99
2016-09-01T01:18:42.011Z,6.94
2016-09-01T01:19:42.014Z,6.94
2016-09-01T01:20:41.998Z,6.99
2016-09-01T01:21:41.972Z,7.01
2016-09-01T01:22:41.985Z,7.01
2016-09-01T01:23:41.954Z,7.04
2016-09-01T01:24:41.944Z,7.16
2016-09-01T01:25:41.934Z,7.19
2016-09-01T01:26:41.940Z,7.19
2016-09-01T01:27:41.928Z,7.15
2016-09-01T01:28:41.903Z,7.19
2016-09-01T01:29:41.926Z,7.24
2016-09-01T01:30:41.910Z,7.15
2016-09-01T01:31:41.886Z,7.23
2016-09-01T01:32:41.883Z,7.19
2016-09-01T01:33:41.875Z,7.21
2016-09-01T01:34:41.867Z,7.26
2016-09-01T01:35:41.856Z,7.27
2016-09-01T01:36:41.828Z,7.24
2016-09-01T01:37:41.834Z,7.29
2016-09-01T01:38:41.874Z,7.29
2016-09-01T01:39:41.800Z,7.36
2016-09-01T01:40:41.803Z,7.42
2016-09-01T01:41:41.805Z,7.36
2016-09-01T01:42:41.793Z,7.33
2016-09-01T01:43:41.789Z,7.44
2016-09-01T01:44:41.775Z,7.57
2016-09-01T01:45:41.771Z,7.52
2016-09-01T01:46:41.769Z,7.47
2016-09-01T01:47:41.764Z,7.52
2016-09-01T01:48:41.733Z,7.55
2016-09-01T01:49:41.724Z,7.45
2016-09-01T01:50:41.704Z,7.41
2016-09-01T01:51:41.711Z,7.36
2016-09-01T01:52:41.690Z,7.63
2016-09-01T01:53:41.699Z,7.7
2016-09-01T01:54:41.673Z,7.92
2016-09-01T01:55:41.673Z,7.89
2016-09-01T01:56:42.365Z,8.09
2016-09-01T01:57:41.670Z,7.99
2016-09-01T01:58:41.654Z,8
2016-09-01T01:59:41.629Z,8.14
2016-09-01T02:00:42.322Z,8.06
2016-09-01T02:01:41.632Z,7.91
2016-09-01T02:02:41.600Z,7.91
2016-09-01T02:03:41.612Z,7.77
2016-09-01T02:04:41.606Z,7.74
2016-09-01T02:05:41.573Z,7.58
2016-09-01T02:06:41.584Z,7.45
2016-09-01T02:07:41.560Z,7.52
2016-09-01T02:08:41.581Z,7.41
2016-09-01T02:09:41.571Z,7.39
2016-09-01T02:10:41.570Z,7.48
2016-09-01T02:11:41.562Z,7.47
2016-09-01T02:12:41.550Z,7.37
2016-09-01T02:13:41.524Z,7.3
2016-09-01T02:14:41.514Z,7.21
2016-09-01T02:15:41.529Z,7.26
2016-09-01T02:16:41.515Z,7.32
2016-09-01T02:17:41.499Z,7.47
2016-09-01T02:18:41.491Z,7.47
2016-09-01T02:19:41.477Z,7.42
2016-09-01T02:20:41.469Z,7.3
2016-09-01T02:21:41.448Z,7.37
2016-09-01T02:22:41.441Z,7.44
2016-09-01T02:23:41.463Z,7.45
2016-09-01T02:24:41.437Z,7.55
2016-09-01T02:25:41.422Z,7.55
2016-09-01T02:26:41.438Z,7.52
2016-09-01T02:27:41.424Z,7.41
2016-09-01T02:28:41.409Z,7.5
2016-09-01T02:29:41.393Z,7.58
2016-09-01T02:30:41.405Z,7.58
2016-09-01T02:31:41.377Z,7.67
2016-09-01T02:32:41.360Z,7.89
2016-09-01T02:33:41.373Z,7.99
2016-09-01T02:34:41.371Z,8.28
2016-09-01T02:35:41.378Z,8.39
2016-09-01T02:36:41.321Z,8.36
2016-09-01T02:37:41.340Z,8.31
2016-09-01T02:38:41.326Z,8
2016-09-01T02:39:41.333Z,8.14
2016-09-01T02:40:41.305Z,8.25
2016-09-01T02:41:41.303Z,8.27
2016-09-01T02:42:41.306Z,8.17
2016-09-01T02:43:41.279Z,7.92
2016-09-01T02:44:41.261Z,7.79
2016-09-01T02:45:41.287Z,7.89
2016-09-01T02:46:41.272Z,7.58
2016-09-01T02:47:41.259Z,7.5
2016-09-01T02:48:41.230Z,7.5
2016-09-01T02:49:41.228Z,7.62
2016-09-01T02:50:41.226Z,7.7
2016-09-01T02:51:41.223Z,7.81
2016-09-01T02:52:41.213Z,7.48
2016-09-01T02:53:41.203Z,7.52
2016-09-01T02:54:41.181Z,7.55
2016-09-01T02:55:41.189Z,7.41
2016-09-01T02:56:41.178Z,7.3
2016-09-01T02:57:41.168Z,7.45
2016-09-01T02:58:41.172Z,7.45
2016-09-01T02:59:41.860Z,7.51
2016-09-01T03:00:41.155Z,7.57
2016-09-01T03:01:41.134Z,7.54
2016-09-01T03:02:41.119Z,7.42
2016-09-01T03:03:41.134Z,7.52
2016-09-01T03:04:41.099Z,7.57
2016-09-01T03:05:41.125Z,7.52
2016-09-01T03:06:41.102Z,7.51
2016-09-01T03:07:41.084Z,7.39
2016-09-01T03:08:41.087Z,7.24
2016-09-01T03:09:41.067Z,7.19
2016-09-01T03:10:41.050Z,7.29
2016-09-01T03:11:41.036Z,7.33
2016-09-01T03:12:41.039Z,7.47
2016-09-01T03:13:41.031Z,7.55
2016-09-01T03:14:41.015Z,7.42
2016-09-01T03:15:41.022Z,7.55
2016-09-01T03:16:41.014Z,7.44
2016-09-01T03:17:41.002Z,7.48
2016-09-01T03:18:41.021Z,7.51
2016-09-01T03:19:40.976Z,7.47
2016-09-01T03:20:40.987Z,7.42
2016-09-01T03:21:40.993Z,7.36
2016-09-01T03:22:40.972Z,7.37
2016-09-01T03:23:40.956Z,7.34
2016-09-01T03:24:40.956Z,7.18
2016-09-01T03:25:40.951Z,7.29
2016-09-01T03:26:40.931Z,7.32
2016-09-01T03:27:40.939Z,7.18
2016-09-01T03:28:40.908Z,7.27
2016-09-01T03:29:40.901Z,7.33
2016-09-01T03:30:40.904Z,7.32
2016-09-01T03:31:40.872Z,7.23
2016-09-01T03:32:40.890Z,7.27
2016-09-01T03:33:40.868Z,7.3
2016-09-01T03:34:40.870Z,7.41
2016-09-01T03:35:40.878Z,7.39
2016-09-01T03:36:40.882Z,7.36
2016-09-01T03:37:40.840Z,7.42
2016-09-01T03:38:40.837Z,7.19
2016-09-01T03:39:40.844Z,7.09
2016-09-01T03:40:40.820Z,7.16
2016-09-01T03:41:40.812Z,7.29
2016-09-01T03:42:40.787Z,7.27
2016-09-01T03:43:40.789Z,7.41
2016-09-01T03:44:40.769Z,7.32
2016-09-01T03:45:40.774Z,7.14
2016-09-01T03:46:40.786Z,7.15
2016-09-01T03:47:40.756Z,7.26
2016-09-01T03:48:40.768Z,7.39
2016-09-01T03:49:40.746Z,7.39
2016-09-01T03:50:40.719Z,7.52
2016-09-01T03:51:40.731Z,7.41
2016-09-01T03:52:40.714Z,7.37
2016-09-01T03:53:40.702Z,7.47
2016-09-01T03:54:40.684Z,7.33
2016-09-01T03:55:40.683Z,7.32
2016-09-01T03:56:40.689Z,7.32
2016-09-01T03:57:40.666Z,7.32
2016-09-01T03:58:40.667Z,7.33
2016-09-01T03:59:40.672Z,7.18
2016-09-01T04:00:40.660Z,7.23
2016-09-01T04:01:40.648Z,7.39
2016-09-01T04:02:40.631Z,7.44
2016-09-01T04:03:40.610Z,7.54
2016-09-01T04:04:40.620Z,7.6
2016-09-01T04:05:40.594Z,7.67
2016-09-01T04:06:40.605Z,7.7
2016-09-01T04:07:40.575Z,7.57
2016-09-01T04:08:40.589Z,7.71
2016-09-01T04:09:40.596Z,7.71
2016-09-01T04:10:40.556Z,7.58
2016-09-01T04:11:40.550Z,7.41
2016-09-01T04:12:40.577Z,7.19
2016-09-01T04:13:40.544Z,7.11
2016-09-01T04:14:40.545Z,7.18
2016-09-01T04:15:40.545Z,7.12
2016-09-01T04:16:40.502Z,7.26
2016-09-01T04:17:40.508Z,7.3
2016-09-01T04:18:40.504Z,7.29
2016-09-01T04:19:40.498Z,7.27
2016-09-01T04:20:40.574Z,7.33
2016-09-01T04:21:40.469Z,7.48
2016-09-01T04:22:40.459Z,7.45
2016-09-01T04:23:40.485Z,7.39
2016-09-01T04:24:40.442Z,7.51
2016-09-01T04:25:41.171Z,7.48
2016-09-01T04:26:40.435Z,7.52
2016-09-01T04:27:40.435Z,7.42
2016-09-01T04:28:40.430Z,7.51
2016-09-01T04:29:40.429Z,7.55
2016-09-01T04:30:40.400Z,7.33
2016-09-01T04:31:40.407Z,7.32
2016-09-01T04:32:40.391Z,7.26
2016-09-01T04:33:40.376Z,7.33
2016-09-01T04:34:40.394Z,7.39
2016-09-01T04:35:42.354Z,7.58
2016-09-01T04:36:40.350Z,7.54
2016-09-01T04:37:40.363Z,7.52
2016-09-01T04:38:40.357Z,7.66
2016-09-01T04:39:40.540Z,7.55
2016-09-01T04:40:40.310Z,7.55
2016-09-01T04:41:40.298Z,7.51
2016-09-01T04:42:40.322Z,7.52
2016-09-01T04:43:40.305Z,7.55
2016-09-01T04:44:40.284Z,7.37
2016-09-01T04:45:40.266Z,7.42
2016-09-01T04:46:40.271Z,7.44
2016-09-01T04:47:40.266Z,7.41
2016-09-01T04:48:40.254Z,7.41
2016-09-01T04:49:40.254Z,7.48
2016-09-01T04:50:40.238Z,7.51
2016-09-01T04:51:40.212Z,7.57
2016-09-01T04:52:40.209Z,7.71
2016-09-01T04:53:40.191Z,7.79
2016-09-01T04:54:40.209Z,7.76
2016-09-01T04:55:40.196Z,7.66
2016-09-01T04:56:40.206Z,7.84
2016-09-01T04:57:40.169Z,7.88
2016-09-01T04:58:40.177Z,8.02
2016-09-01T04:59:40.168Z,7.81
2016-09-01T05:00:40.846Z,7.73
2016-09-01T05:01:40.153Z,7.85
2016-09-01T05:02:40.134Z,8
2016-09-01T05:03:40.109Z,8
2016-09-01T05:04:40.110Z,7.96
2016-09-01T05:05:40.121Z,8.17
2016-09-01T05:06:40.105Z,8.14
2016-09-01T05:07:40.097Z,8.14
2016-09-01T05:08:40.096Z,8.27
2016-09-01T05:09:40.072Z,8.29
2016-09-01T05:10:40.068Z,8.29
2016-09-01T05:11:40.083Z,8.34
2016-09-01T05:12:40.057Z,8.25
2016-09-01T05:13:40.052Z,8.2
2016-09-01T05:14:40.052Z,8.31
2016-09-01T05:15:40.049Z,8.5
2016-09-01T05:16:40.023Z,8.82
2016-09-01T05:17:40.027Z,8.8
2016-09-01T05:18:40.008Z,8.71
2016-09-01T05:19:40.020Z,8.8
2016-09-01T05:20:39.983Z,9.04
2016-09-01T05:21:39.987Z,9.22
2016-09-01T05:22:39.963Z,9.1
2016-09-01T05:23:39.979Z,9.06
2016-09-01T05:24:39.990Z,9.13
2016-09-01T05:25:39.948Z,9.16
2016-09-01T05:26:39.943Z,9.24
2016-09-01T05:27:39.944Z,9.24
2016-09-01T05:28:39.941Z,9.3
2016-09-01T05:29:39.942Z,9.48
2016-09-01T05:30:39.945Z,9.35
2016-09-01T05:31:39.909Z,9.17
2016-09-01T05:32:39.898Z,8.94
2016-09-01T05:33:39.903Z,9.08
2016-09-01T05:34:39.895Z,8.96
2016-09-01T05:35:39.896Z,8.7
2016-09-01T05:36:39.905Z,8.4
2016-09-01T05:37:39.876Z,8.39
2016-09-01T05:38:39.856Z,8.37
2016-09-01T05:39:39.916Z,8.4
2016-09-01T05:40:39.853Z,8.42
2016-09-01T05:41:39.831Z,8.54
2016-09-01T05:42:39.844Z,8.68
2016-09-01T05:43:39.835Z,8.96
2016-09-01T05:44:39.834Z,8.98
2016-09-01T05:45:39.801Z,8.93
2016-09-01T05:46:39.802Z,8.73
2016-09-01T05:47:39.799Z,8.61
2016-09-01T05:48:39.803Z,8.45
2016-09-01T05:49:39.784Z,8.36
2016-09-01T05:50:39.783Z,8.29
2016-09-01T05:51:39.780Z,8.29
2016-09-01T05:52:39.770Z,8.28
2016-09-01T05:53:39.773Z,8.36
2016-09-01T05:54:39.759Z,8.31
2016-09-01T05:55:39.748Z,8.29
2016-09-01T05:56:39.744Z,8.1
2016-09-01T05:57:39.743Z,8.07
2016-09-01T05:58:39.725Z,8
2016-09-01T05:59:39.718Z,8.17
2016-09-01T06:00:39.704Z,8.07
2016-09-01T06:01:39.706Z,7.86
2016-09-01T06:02:39.705Z,7.76
2016-09-01T06:03:39.680Z,7.6
2016-09-01T06:04:39.695Z,7.54
2016-09-01T06:05:39.653Z,7.54
2016-09-01T06:06:39.685Z,7.42
2016-09-01T06:07:39.667Z,7.44
2016-09-01T06:08:39.651Z,7.5
2016-09-01T06:09:39.645Z,7.57
2016-09-01T06:10:39.636Z,7.73
2016-09-01T06:11:39.623Z,7.71
2016-09-01T06:12:39.628Z,7.69
2016-09-01T06:13:39.611Z,7.52
2016-09-01T06:14:39.596Z,7.62
2016-09-01T06:15:39.591Z,7.52
2016-09-01T06:16:39.594Z,7.55
2016-09-01T06:17:39.581Z,7.5
2016-09-01T06:18:39.577Z,7.55
2016-09-01T06:19:39.544Z,7.6
2016-09-01T06:20:39.555Z,7.89
2016-09-01T06:21:39.937Z,8.03
2016-09-01T06:22:39.555Z,7.99
2016-09-01T06:23:39.599Z,7.99
2016-09-01T06:24:39.519Z,8.06
2016-09-01T06:25:39.508Z,7.95
2016-09-01T06:26:39.494Z,7.96
2016-09-01T06:27:39.475Z,8.02
2016-09-01T06:28:39.488Z,7.85
2016-09-01T06:29:39.478Z,7.81
2016-09-01T06:30:39.444Z,7.91
2016-09-01T06:31:39.457Z,7.99
2016-09-01T06:32:39.440Z,8.29
2016-09-01T06:33:39.417Z,8.29
2016-09-01T06:34:39.411Z,8.32
2016-09-01T06:35:39.632Z,8.36
2016-09-01T06:36:39.426Z,8.4
2016-09-01T06:37:39.389Z,8.32
2016-09-01T06:38:39.416Z,8.17
2016-09-01T06:39:39.588Z,7.95
2016-09-01T06:40:39.369Z,7.73
2016-09-01T06:41:39.372Z,7.52
2016-09-01T06:42:39.374Z,7.45
2016-09-01T06:43:39.366Z,7.32
2016-09-01T06:44:39.344Z,7.26
2016-09-01T06:45:39.339Z,7.21
2016-09-01T06:46:39.332Z,7.23
2016-09-01T06:47:39.307Z,7.29
2016-09-01T06:48:39.312Z,7.3
2016-09-01T06:49:39.318Z,7.32
2016-09-01T06:50:39.419Z,7.26
2016-09-01T06:51:39.285Z,7.3
2016-09-01T06:52:39.277Z,7.29
2016-09-01T06:53:39.269Z,7.32
2016-09-01T06:54:39.258Z,7.24
2016-09-01T06:55:39.241Z,7.15
2016-09-01T06:56:39.249Z,7.16
2016-09-01T06:57:39.210Z,7.07
2016-09-01T06:58:39.225Z,6.97
2016-09-01T06:59:39.202Z,7
2016-09-01T07:00:39.208Z,6.96
2016-09-01T07:01:39.208Z,6.96
2016-09-01T07:02:39.192Z,7.07
2016-09-01T07:03:39.182Z,6.94
2016-09-01T07:04:39.188Z,6.87
2016-09-01T07:05:39.157Z,6.93
2016-09-01T07:06:39.164Z,6.89
2016-09-01T07:07:39.125Z,6.94
2016-09-01T07:08:39.146Z,6.99
2016-09-01T07:09:39.107Z,6.97
2016-09-01T07:10:39.125Z,6.97
2016-09-01T07:11:39.102Z,6.94
2016-09-01T07:12:39.086Z,6.87
2016-09-01T07:13:39.089Z,6.86
2016-09-01T07:14:39.061Z,7
2016-09-01T07:15:39.095Z,6.99
2016-09-01T07:16:39.327Z,6.87
2016-09-01T07:17:39.038Z,6.72
2016-09-01T07:18:39.043Z,6.71
2016-09-01T07:19:39.007Z,6.71
2016-09-01T07:20:39.031Z,6.68
2016-09-01T07:21:39.036Z,6.63
2016-09-01T07:22:38.982Z,6.72
2016-09-01T07:23:39.437Z,6.69
2016-09-01T07:24:39.123Z,6.82
2016-09-01T07:25:38.953Z,6.86
2016-09-01T07:26:38.977Z,6.96
2016-09-01T07:27:38.935Z,6.99
2016-09-01T07:28:38.939Z,7.01
2016-09-01T07:29:38.931Z,6.89
2016-09-01T07:30:38.925Z,6.83
2016-09-01T07:31:38.922Z,6.83
2016-09-01T07:32:38.887Z,6.72
2016-09-01T07:33:38.876Z,6.61
2016-09-01T07:34:38.872Z,6.72
2016-09-01T07:35:38.870Z,6.72
2016-09-01T07:36:38.853Z,6.57
2016-09-01T07:37:38.852Z,6.61
2016-09-01T07:38:38.833Z,6.58
2016-09-01T07:39:38.817Z,6.54
2016-09-01T07:40:38.816Z,6.5
2016-09-01T07:41:38.824Z,6.53
2016-09-01T07:42:38.792Z,6.53
2016-09-01T07:43:39.172Z,6.51
2016-09-01T07:44:38.791Z,6.5
2016-09-01T07:45:38.779Z,6.57
2016-09-01T07:46:38.746Z,6.64
2016-09-01T07:47:38.760Z,6.72
2016-09-01T07:48:38.740Z,6.6
2016-09-01T07:49:38.719Z,6.71
2016-09-01T07:50:38.707Z,6.61
2016-09-01T07:51:38.699Z,6.71
2016-09-01T07:52:38.736Z,6.75
2016-09-01T07:53:38.681Z,6.72
2016-09-01T07:54:38.664Z,6.69
2016-09-01T07:55:39.349Z,6.73
2016-09-01T07:56:38.658Z,6.75
2016-09-01T07:57:38.642Z,6.69
2016-09-01T07:58:38.622Z,6.58
2016-09-01T07:59:38.629Z,6.6
2016-09-01T08:00:38.596Z,6.54
2016-09-01T08:01:38.584Z,6.5
2016-09-01T08:02:38.603Z,6.57
2016-09-01T08:03:38.578Z,6.63
2016-09-01T08:04:38.572Z,6.72
2016-09-01T08:05:38.559Z,6.69
2016-09-01T08:06:38.554Z,6.71
2016-09-01T08:07:38.548Z,6.73
2016-09-01T08:08:38.546Z,6.72
2016-09-01T08:09:38.536Z,6.72
2016-09-01T08:10:38.505Z,6.78
2016-09-01T08:11:38.480Z,6.79
2016-09-01T08:12:38.491Z,6.78
2016-09-01T08:13:38.482Z,6.86
2016-09-01T08:14:38.478Z,6.69
2016-09-01T08:15:38.458Z,6.82
2016-09-01T08:16:38.442Z,6.69
2016-09-01T08:17:38.455Z,6.79
2016-09-01T08:18:38.433Z,6.86
2016-09-01T08:19:38.426Z,6.9
2016-09-01T08:20:38.403Z,6.86
2016-09-01T08:21:38.397Z,6.99
2016-09-01T08:22:38.390Z,7
2016-09-01T08:23:38.385Z,7.04
2016-09-01T08:24:38.361Z,6.91
2016-09-01T08:25:38.350Z,6.99
2016-09-01T08:26:38.339Z,6.94
2016-09-01T08:27:38.328Z,6.97
2016-09-01T08:28:38.319Z,6.69
2016-09-01T08:29:38.310Z,6.82
2016-09-01T08:30:38.320Z,6.75
2016-09-01T08:31:38.292Z,6.87
2016-09-01T08:32:38.296Z,6.86
2016-09-01T08:33:38.271Z,6.94
2016-09-01T08:34:38.264Z,7.07
2016-09-01T08:35:38.274Z,7.21
2016-09-01T08:36:38.251Z,7.34
2016-09-01T08:37:38.241Z,7.55
2016-09-01T08:38:38.247Z,7.55
2016-09-01T08:39:38.233Z,7.52
2016-09-01T08:40:38.234Z,7.6
2016-09-01T08:41:38.216Z,7.44
2016-09-01T08:42:38.184Z,7.5
2016-09-01T08:43:38.173Z,7.5
2016-09-01T08:44:38.172Z,7.5
2016-09-01T08:45:38.173Z,7.52
2016-09-01T08:46:38.139Z,7.55
2016-09-01T08:47:38.151Z,7.41
2016-09-01T08:48:38.152Z,7.27
2016-09-01T08:49:38.124Z,7.3
2016-09-01T08:50:38.112Z,7.21
2016-09-01T08:51:38.094Z,7.14
2016-09-01T08:52:38.093Z,7.11
2016-09-01T08:53:38.102Z,7.26
2016-09-01T08:54:38.077Z,7.09
2016-09-01T08:55:38.061Z,7.27
2016-09-01T08:56:38.036Z,7.33
2016-09-01T08:57:38.040Z,7.47
2016-09-01T08:58:38.027Z,7.5
2016-09-01T08:59:38.048Z,7.67
2016-09-01T09:00:38.008Z,7.63
2016-09-01T09:01:38.020Z,7.66
2016-09-01T09:02:37.976Z,7.82
2016-09-01T09:03:37.974Z,8.13
2016-09-01T09:04:37.970Z,8.21
2016-09-01T09:05:37.963Z,8.36
2016-09-01T09:06:37.956Z,8.4
2016-09-01T09:07:37.945Z,8.63
2016-09-01T09:08:37.938Z,8.75
2016-09-01T09:09:37.925Z,8.85
2016-09-01T09:10:38.630Z,8.71
2016-09-01T09:11:37.895Z,8.88
2016-09-01T09:12:37.900Z,8.93
2016-09-01T09:13:37.890Z,8.91
2016-09-01T09:14:37.895Z,9.15
2016-09-01T09:15:37.888Z,9.26
2016-09-01T09:16:37.886Z,9.63
2016-09-01T09:17:37.843Z,9.62
2016-09-01T09:18:37.850Z,9.74
2016-09-01T09:19:37.852Z,9.58
2016-09-01T09:20:37.838Z,9.41
2016-09-01T09:21:37.830Z,9.48
2016-09-01T09:22:37.940Z,9.65
2016-09-01T09:23:37.840Z,9.98
2016-09-01T09:24:37.795Z,10.04
2016-09-01T09:25:37.785Z,10.2
2016-09-01T09:26:38.474Z,10.54
2016-09-01T09:27:37.773Z,10.34
2016-09-01T09:28:37.764Z,10.2
2016-09-01T09:29:37.771Z,10.18
2016-09-01T09:30:37.764Z,10.35
2016-09-01T09:31:37.736Z,10.31
2016-09-01T09:32:37.744Z,10.22
2016-09-01T09:33:37.725Z,9.95
2016-09-01T09:34:37.726Z,10.04
2016-09-01T09:35:37.720Z,10.07
2016-09-01T09:36:37.702Z,10.14
2016-09-01T09:37:37.702Z,10.04
2016-09-01T09:38:37.675Z,10.16
2016-09-01T09:39:37.674Z,10.16
2016-09-01T09:40:37.722Z,10.18
2016-09-01T09:41:37.663Z,10.11
2016-09-01T09:42:37.668Z,10.24
2016-09-01T09:43:37.670Z,10.32
2016-09-01T09:44:37.651Z,10.1
2016-09-01T09:45:37.632Z,10.04
2016-09-01T09:46:37.653Z,9.91
2016-09-01T09:47:37.629Z,9.89
2016-09-01T09:48:37.623Z,9.75
2016-09-01T09:49:38.315Z,9.86
2016-09-01T09:50:37.581Z,10.07
2016-09-01T09:51:37.593Z,10.1
2016-09-01T09:52:37.607Z,10.46
2016-09-01T09:53:37.580Z,10.47
2016-09-01T09:54:37.586Z,10.28
2016-09-01T09:55:37.562Z,10.04
2016-09-01T09:56:37.556Z,9.75
2016-09-01T09:57:37.538Z,9.65
2016-09-01T09:58:37.525Z,9.75
2016-09-01T09:59:37.530Z,9.45
2016-09-01T10:00:37.531Z,9.23
2016-09-01T10:01:37.524Z,9.17
2016-09-01T10:02:37.517Z,9.27
2016-09-01T10:03:37.516Z,9.5
2016-09-01T10:04:37.502Z,9.62
2016-09-01T10:05:37.470Z,9.89
2016-09-01T10:06:37.488Z,9.83
2016-09-01T10:07:37.456Z,10.14
2016-09-01T10:08:37.469Z,10.32
2016-09-01T10:09:37.454Z,10.34
2016-09-01T10:10:37.457Z,10.43
2016-09-01T10:11:37.430Z,10.32
2016-09-01T10:12:37.418Z,10.17
2016-09-01T10:13:37.448Z,10.09
2016-09-01T10:14:37.426Z,10.14
2016-09-01T10:15:37.396Z,10.18
2016-09-01T10:16:37.398Z,10.31
2016-09-01T10:17:37.403Z,10.18
2016-09-01T10:18:37.415Z,9.91
2016-09-01T10:19:37.402Z,10.06
2016-09-01T10:20:37.385Z,10.02
2016-09-01T10:21:37.382Z,9.93
2016-09-01T10:22:37.367Z,9.78
2016-09-01T10:23:37.359Z,9.83
2016-09-01T10:24:37.359Z,9.58
2016-09-01T10:25:37.333Z,9.7
2016-09-01T10:26:37.338Z,9.75
2016-09-01T10:27:37.309Z,9.88
2016-09-01T10:28:37.312Z,9.75
2016-09-01T10:29:37.323Z,9.7
2016-09-01T10:30:37.293Z,9.65
2016-09-01T10:31:37.295Z,9.4
2016-09-01T10:32:37.281Z,9.17
2016-09-01T10:33:37.273Z,8.91
2016-09-01T10:34:37.264Z,8.97
2016-09-01T10:35:38.854Z,8.85
2016-09-01T10:36:37.254Z,9
2016-09-01T10:37:37.261Z,8.93
2016-09-01T10:38:37.242Z,8.5
2016-09-01T10:39:37.244Z,8.25
2016-09-01T10:40:38.121Z,8.18
2016-09-01T10:41:37.230Z,8
2016-09-01T10:42:37.210Z,8.02
2016-09-01T10:43:37.199Z,8.04
2016-09-01T10:44:37.174Z,7.99
2016-09-01T10:45:37.193Z,8.1
2016-09-01T10:46:37.166Z,8.29
2016-09-01T10:47:37.160Z,8.39
2016-09-01T10:48:37.837Z,8.65
2016-09-01T10:49:37.141Z,8.85
2016-09-01T10:50:37.173Z,8.86
2016-09-01T10:51:37.141Z,8.64
2016-09-01T10:52:37.137Z,8.76
2016-09-01T10:53:37.121Z,8.86
2016-09-01T10:54:37.110Z,8.89
2016-09-01T10:55:37.111Z,9.13
2016-09-01T10:56:37.581Z,9.38
2016-09-01T10:57:37.071Z,9.83
2016-09-01T10:58:37.094Z,9.89
2016-09-01T10:59:37.059Z,9.96
2016-09-01T11:00:37.055Z,10.04
2016-09-01T11:01:37.070Z,9.98
2016-09-01T11:02:37.067Z,10.11
2016-09-01T11:03:37.033Z,10.31
2016-09-01T11:04:37.034Z,10.47
2016-09-01T11:05:37.026Z,10.58
2016-09-01T11:06:37.010Z,10.54
2016-09-01T11:07:37.010Z,10.83
2016-09-01T11:08:37.001Z,10.66
2016-09-01T11:09:37.006Z,10.84
2016-09-01T11:10:36.980Z,10.62
2016-09-01T11:11:36.974Z,10.32
2016-09-01T11:12:36.977Z,10.43
2016-09-01T11:13:36.955Z,10.6
2016-09-01T11:14:36.949Z,10.63
2016-09-01T11:15:36.948Z,10.65
2016-09-01T11:16:36.926Z,10.36
2016-09-01T11:17:36.926Z,9.98
2016-09-01T11:18:36.925Z,9.91
2016-09-01T11:19:36.909Z,10.16
2016-09-01T11:20:36.903Z,10.6
2016-09-01T11:21:36.915Z,11.13
2016-09-01T11:22:36.880Z,11.67
2016-09-01T11:23:37.639Z,11.69
2016-09-01T11:24:36.893Z,11.66
2016-09-01T11:25:36.887Z,11.67
2016-09-01T11:26:36.867Z,11.62
2016-09-01T11:27:36.852Z,11.6
2016-09-01T11:28:36.851Z,11.59
2016-09-01T11:29:36.840Z,11.6
2016-09-01T11:30:36.839Z,11.44
2016-09-01T11:31:36.814Z,10.99
2016-09-01T11:32:36.826Z,10.6
2016-09-01T11:33:36.797Z,10.1
2016-09-01T11:34:36.831Z,9.75
2016-09-01T11:35:36.784Z,9.6
2016-09-01T11:36:36.788Z,9.4
2016-09-01T11:37:36.801Z,9.19
2016-09-01T11:38:36.798Z,9.3
2016-09-01T11:39:36.770Z,9.24
2016-09-01T11:40:36.976Z,9.13
2016-09-01T11:41:36.755Z,9.49
2016-09-01T11:42:36.766Z,9.7
2016-09-01T11:43:36.747Z,10.01
2016-09-01T11:44:36.748Z,10.13
2016-09-01T11:45:36.735Z,10.31
2016-09-01T11:46:36.731Z,10.58
2016-09-01T11:47:36.716Z,10.76
2016-09-01T11:48:36.703Z,10.78
2016-09-01T11:49:36.695Z,10.9
2016-09-01T11:50:36.684Z,10.95
2016-09-01T11:51:36.782Z,10.98
2016-09-01T11:52:36.698Z,11.11
2016-09-01T11:53:36.686Z,11.09
2016-09-01T11:54:36.654Z,11.06
2016-09-01T11:55:36.660Z,11.09
2016-09-01T11:56:36.652Z,11.38
2016-09-01T11:57:36.638Z,11.75
2016-09-01T11:58:36.630Z,11.56
2016-09-01T11:59:36.632Z,11.63
2016-09-01T12:00:36.623Z,11.74
2016-09-01T12:01:36.599Z,11.78
2016-09-01T12:02:36.600Z,12.76
2016-09-01T12:03:36.619Z,13.73
2016-09-01T12:04:36.586Z,13.75
2016-09-01T12:05:36.600Z,13.21
2016-09-01T12:06:36.585Z,12.91
2016-09-01T12:07:36.579Z,12.71
2016-09-01T12:08:36.552Z,12.33
2016-09-01T12:09:36.556Z,11.87
2016-09-01T12:10:36.553Z,11.77
2016-09-01T12:11:36.548Z,11.62
2016-09-01T12:12:36.548Z,11.44
2016-09-01T12:13:36.541Z,11.41
2016-09-01T12:14:36.536Z,11.02
2016-09-01T12:15:36.532Z,11.02
2016-09-01T12:16:36.520Z,10.81
2016-09-01T12:17:36.500Z,10.49
2016-09-01T12:18:36.514Z,10.07
2016-09-01T12:19:36.493Z,10.01
2016-09-01T12:20:36.499Z,9.91
2016-09-01T12:21:36.521Z,9.95
2016-09-01T12:22:36.482Z,9.88
2016-09-01T12:23:36.476Z,9.77
2016-09-01T12:24:37.155Z,9.95
2016-09-01T12:25:36.442Z,9.92
2016-09-01T12:26:36.449Z,9.95
2016-09-01T12:27:36.453Z,9.45
2016-09-01T12:28:36.427Z,9.5
2016-09-01T12:29:36.419Z,9.44
2016-09-01T12:30:36.420Z,9.45
2016-09-01T12:31:36.399Z,9.48
2016-09-01T12:32:36.409Z,9.31
2016-09-01T12:33:36.405Z,8.97
2016-09-01T12:34:36.372Z,8.54
2016-09-01T12:35:36.380Z,8.36
2016-09-01T12:36:36.365Z,8.25
2016-09-01T12:37:36.364Z,7.94
2016-09-01T12:38:36.345Z,7.81
2016-09-01T12:39:36.354Z,7.76
2016-09-01T12:40:36.339Z,7.86
2016-09-01T12:41:36.322Z,8.04
2016-09-01T12:42:36.299Z,8.28
2016-09-01T12:43:36.315Z,8.24
2016-09-01T12:44:36.300Z,8.28
2016-09-01T12:45:36.308Z,8.28
2016-09-01T12:46:36.280Z,8.37
2016-09-01T12:47:36.284Z,8.49
2016-09-01T12:48:36.267Z,8.46
2016-09-01T12:49:36.249Z,8.64
2016-09-01T12:50:36.236Z,8.8
2016-09-01T12:51:36.228Z,8.97
2016-09-01T12:52:37.088Z,9.31
2016-09-01T12:53:36.224Z,9.5
2016-09-01T12:54:36.222Z,9.67
2016-09-01T12:55:36.214Z,9.65
2016-09-01T12:56:36.190Z,9.59
2016-09-01T12:57:36.882Z,9.44
2016-09-01T12:58:36.164Z,9.34
2016-09-01T12:59:36.180Z,9.49
2016-09-01T13:00:36.143Z,9.45
2016-09-01T13:01:36.148Z,9.26
2016-09-01T13:02:36.163Z,9.15
2016-09-01T13:03:36.139Z,9.06
2016-09-01T13:04:36.128Z,9.06
2016-09-01T13:05:36.134Z,9.06
2016-09-01T13:06:36.090Z,9.27
2016-09-01T13:07:36.109Z,9.41
2016-09-01T13:08:36.082Z,9.63
2016-09-01T13:09:36.097Z,9.65
2016-09-01T13:10:36.076Z,10.06
2016-09-01T13:11:36.065Z,10.32
2016-09-01T13:12:36.068Z,10.44
2016-09-01T13:13:36.038Z,10.62
2016-09-01T13:14:36.059Z,10.72
2016-09-01T13:15:36.026Z,10.46
2016-09-01T13:16:36.018Z,10.26
2016-09-01T13:17:36.030Z,10.22
2016-09-01T13:18:36.016Z,10.51